sensor_id;sensor_type;location;lat;lon;timestamp;pressure;altitude;pressure_sealevel;temperature;humidity
26823;BME280;14852;51.910;8.878;2022-09-30T00:02:03;98943.72;;;9.20;57.49
26823;BME280;14852;51.910;8.878;2022-09-30T00:04:29;98939.72;;;9.14;57.45
26823;BME280;14852;51.910;8.878;2022-09-30T00:06:55;98940.28;;;9.05;57.55
26823;BME280;14852;51.910;8.878;2022-09-30T00:09:21;98933.88;;;8.96;57.56
26823;BME280;14852;51.910;8.878;2022-09-30T00:11:46;98944.78;;;8.87;57.92
26823;BME280;14852;51.910;8.878;2022-09-30T00:14:20;98944.28;;;8.81;57.77
26823;BME280;14852;51.910;8.878;2022-09-30T00:16:46;98945.66;;;8.72;58.01
26823;BME280;14852;51.910;8.878;2022-09-30T00:19:13;98947.59;;;8.68;58.18
26823;BME280;14852;51.910;8.878;2022-09-30T00:21:39;98947.97;;;8.62;57.98
26823;BME280;14852;51.910;8.878;2022-09-30T00:24:06;98952.63;;;8.56;58.15
26823;BME280;14852;51.910;8.878;2022-09-30T00:26:33;98951.41;;;8.47;58.45
26823;BME280;14852;51.910;8.878;2022-09-30T00:29:00;98955.09;;;8.43;58.28
26823;BME280;14852;51.910;8.878;2022-09-30T00:31:32;98953.53;;;8.41;58.59
26823;BME280;14852;51.910;8.878;2022-09-30T00:33:58;98955.28;;;8.40;58.43
26823;BME280;14852;51.910;8.878;2022-09-30T00:36:53;98958.69;;;8.41;58.45
26823;BME280;14852;51.910;8.878;2022-09-30T00:39:23;98960.53;;;8.39;58.34
26823;BME280;14852;51.910;8.878;2022-09-30T00:41:57;98960.63;;;8.37;58.51
26823;BME280;14852;51.910;8.878;2022-09-30T00:45:03;98964.28;;;8.33;58.38
26823;BME280;14852;51.910;8.878;2022-09-30T00:50:38;98971.22;;;8.32;58.56
26823;BME280;14852;51.910;8.878;2022-09-30T00:53:15;98967.47;;;8.38;58.33
26823;BME280;14852;51.910;8.878;2022-09-30T00:55:47;98961.94;;;8.44;58.30
26823;BME280;14852;51.910;8.878;2022-09-30T00:58:24;98968.44;;;8.51;58.22
26823;BME280;14852;51.910;8.878;2022-09-30T01:00:52;98968.44;;;8.51;57.98
26823;BME280;14852;51.910;8.878;2022-09-30T01:03:19;98969.38;;;8.50;58.35
26823;BME280;14852;51.910;8.878;2022-09-30T01:05:46;98977.38;;;8.46;58.14
26823;BME280;14852;51.910;8.878;2022-09-30T01:08:11;98981.63;;;8.47;58.41
26823;BME280;14852;51.910;8.878;2022-09-30T01:10:37;98980.56;;;8.51;58.21
26823;BME280;14852;51.910;8.878;2022-09-30T01:13:04;98979.56;;;8.53;58.38
26823;BME280;14852;51.910;8.878;2022-09-30T01:15:53;98981.13;;;8.56;58.32
26823;BME280;14852;51.910;8.878;2022-09-30T01:18:45;98983.72;;;8.56;58.26
26823;BME280;14852;51.910;8.878;2022-09-30T01:21:37;98981.88;;;8.58;58.33
26823;BME280;14852;51.910;8.878;2022-09-30T01:27:52;98976.31;;;8.50;58.70
26823;BME280;14852;51.910;8.878;2022-09-30T01:34:02;98973.19;;;8.59;58.78
26823;BME280;14852;51.910;8.878;2022-09-30T01:40:02;98972.03;;;8.64;58.36
26823;BME280;14852;51.910;8.878;2022-09-30T01:46:00;98979.59;;;8.67;58.45
26823;BME280;14852;51.910;8.878;2022-09-30T01:51:37;98970.34;;;8.63;58.40
26823;BME280;14852;51.910;8.878;2022-09-30T01:54:22;98969.22;;;8.67;58.50
26823;BME280;14852;51.910;8.878;2022-09-30T01:57:06;98972.41;;;8.73;58.45
26823;BME280;14852;51.910;8.878;2022-09-30T01:59:41;98970.72;;;8.71;58.28
26823;BME280;14852;51.910;8.878;2022-09-30T02:02:17;98976.25;;;8.65;58.74
26823;BME280;14852;51.910;8.878;2022-09-30T02:04:56;98974.19;;;8.56;58.64
26823;BME280;14852;51.910;8.878;2022-09-30T02:07:40;98982.47;;;8.47;58.97
26823;BME280;14852;51.910;8.878;2022-09-30T02:13:19;98984.16;;;8.32;59.19
26823;BME280;14852;51.910;8.878;2022-09-30T02:15:54;98992.25;;;8.26;58.92
26823;BME280;14852;51.910;8.878;2022-09-30T02:18:31;98988.81;;;8.26;59.01
26823;BME280;14852;51.910;8.878;2022-09-30T02:21:02;98993.22;;;8.24;59.02
26823;BME280;14852;51.910;8.878;2022-09-30T02:23:34;98987.97;;;8.25;59.07
26823;BME280;14852;51.910;8.878;2022-09-30T02:26:08;98988.81;;;8.26;58.88
26823;BME280;14852;51.910;8.878;2022-09-30T02:28:44;98987.00;;;8.28;59.13
26823;BME280;14852;51.910;8.878;2022-09-30T02:31:11;98993.44;;;8.37;58.98
26823;BME280;14852;51.910;8.878;2022-09-30T02:34:18;98992.50;;;8.38;58.82
26823;BME280;14852;51.910;8.878;2022-09-30T02:36:55;98994.44;;;8.34;58.95
26823;BME280;14852;51.910;8.878;2022-09-30T02:39:39;98996.03;;;8.37;58.78
26823;BME280;14852;51.910;8.878;2022-09-30T02:42:17;99004.53;;;8.39;58.86
26823;BME280;14852;51.910;8.878;2022-09-30T02:44:50;98998.44;;;8.40;58.80
26823;BME280;14852;51.910;8.878;2022-09-30T02:50:45;99005.94;;;8.44;58.80
26823;BME280;14852;51.910;8.878;2022-09-30T02:58:58;99014.91;;;8.39;58.70
26823;BME280;14852;51.910;8.878;2022-09-30T03:01:24;99007.13;;;8.39;58.90
26823;BME280;14852;51.910;8.878;2022-09-30T03:03:56;99004.47;;;8.40;58.96
26823;BME280;14852;51.910;8.878;2022-09-30T03:06:23;99002.63;;;8.42;59.34
26823;BME280;14852;51.910;8.878;2022-09-30T03:08:51;99001.59;;;8.45;58.98
26823;BME280;14852;51.910;8.878;2022-09-30T03:11:24;99004.94;;;8.47;59.02
26823;BME280;14852;51.910;8.878;2022-09-30T03:20:18;99007.88;;;8.41;59.44
26823;BME280;14852;51.910;8.878;2022-09-30T03:37:50;99023.38;;;7.93;59.96
26823;BME280;14852;51.910;8.878;2022-09-30T03:41:03;99018.34;;;7.90;59.76
26823;BME280;14852;51.910;8.878;2022-09-30T03:43:46;99029.75;;;7.86;59.73
26823;BME280;14852;51.910;8.878;2022-09-30T03:46:33;99022.00;;;7.86;59.63
26823;BME280;14852;51.910;8.878;2022-09-30T03:49:09;99038.34;;;7.87;59.59
26823;BME280;14852;51.910;8.878;2022-09-30T03:51:37;99031.63;;;7.84;59.82
26823;BME280;14852;51.910;8.878;2022-09-30T03:54:09;99037.59;;;7.85;59.75
26823;BME280;14852;51.910;8.878;2022-09-30T03:56:36;99035.34;;;7.79;59.87
26823;BME280;14852;51.910;8.878;2022-09-30T03:59:16;99040.84;;;7.73;59.92
26823;BME280;14852;51.910;8.878;2022-09-30T04:01:44;99041.50;;;7.60;59.73
26823;BME280;14852;51.910;8.878;2022-09-30T04:04:10;99035.94;;;7.51;60.12
26823;BME280;14852;51.910;8.878;2022-09-30T04:06:37;99049.94;;;7.47;60.03
26823;BME280;14852;51.910;8.878;2022-09-30T04:09:03;99057.78;;;7.45;59.93
26823;BME280;14852;51.910;8.878;2022-09-30T04:11:29;99053.50;;;7.44;60.42
26823;BME280;14852;51.910;8.878;2022-09-30T04:13:55;99057.91;;;7.42;60.24
26823;BME280;14852;51.910;8.878;2022-09-30T04:16:20;99056.31;;;7.40;60.25
26823;BME280;14852;51.910;8.878;2022-09-30T04:18:46;99060.66;;;7.39;59.99
26823;BME280;14852;51.910;8.878;2022-09-30T04:21:13;99056.41;;;7.38;60.27
26823;BME280;14852;51.910;8.878;2022-09-30T04:23:41;99053.16;;;7.35;60.22
26823;BME280;14852;51.910;8.878;2022-09-30T04:26:11;99059.22;;;7.34;60.16
26823;BME280;14852;51.910;8.878;2022-09-30T04:28:37;99056.72;;;7.32;60.22
26823;BME280;14852;51.910;8.878;2022-09-30T04:31:04;99061.94;;;7.31;60.18
26823;BME280;14852;51.910;8.878;2022-09-30T04:33:31;99063.63;;;7.32;60.51
26823;BME280;14852;51.910;8.878;2022-09-30T04:35:58;99073.97;;;7.32;60.16
26823;BME280;14852;51.910;8.878;2022-09-30T04:38:25;99078.22;;;7.33;60.15
26823;BME280;14852;51.910;8.878;2022-09-30T04:40:52;99080.88;;;7.31;60.34
26823;BME280;14852;51.910;8.878;2022-09-30T04:43:19;99086.97;;;7.30;60.06
26823;BME280;14852;51.910;8.878;2022-09-30T04:45:47;99093.09;;;7.27;60.28
26823;BME280;14852;51.910;8.878;2022-09-30T04:48:14;99095.09;;;7.22;60.39
26823;BME280;14852;51.910;8.878;2022-09-30T04:50:41;99095.38;;;7.16;60.16
26823;BME280;14852;51.910;8.878;2022-09-30T04:53:08;99099.13;;;7.11;60.46
26823;BME280;14852;51.910;8.878;2022-09-30T04:55:36;99106.25;;;7.06;60.53
26823;BME280;14852;51.910;8.878;2022-09-30T04:58:02;99103.84;;;7.03;60.51
26823;BME280;14852;51.910;8.878;2022-09-30T05:00:27;99107.31;;;7.02;60.60
26823;BME280;14852;51.910;8.878;2022-09-30T05:02:53;99111.72;;;7.00;60.67
26823;BME280;14852;51.910;8.878;2022-09-30T05:05:19;99108.22;;;7.01;60.74
26823;BME280;14852;51.910;8.878;2022-09-30T05:07:45;99110.88;;;6.99;60.54
26823;BME280;14852;51.910;8.878;2022-09-30T05:10:12;99117.72;;;7.00;60.62
26823;BME280;14852;51.910;8.878;2022-09-30T05:12:38;99112.63;;;6.99;60.65
26823;BME280;14852;51.910;8.878;2022-09-30T05:15:08;99115.22;;;6.99;60.70
26823;BME280;14852;51.910;8.878;2022-09-30T05:17:34;99123.72;;;7.01;60.58
26823;BME280;14852;51.910;8.878;2022-09-30T05:20:01;99125.22;;;7.05;60.38
26823;BME280;14852;51.910;8.878;2022-09-30T05:22:27;99138.84;;;7.08;60.44
26823;BME280;14852;51.910;8.878;2022-09-30T05:24:53;99136.34;;;7.07;60.44
26823;BME280;14852;51.910;8.878;2022-09-30T05:27:24;99134.66;;;7.06;60.75
26823;BME280;14852;51.910;8.878;2022-09-30T05:29:50;99130.63;;;7.00;60.53
26823;BME280;14852;51.910;8.878;2022-09-30T05:32:16;99131.69;;;6.96;60.50
26823;BME280;14852;51.910;8.878;2022-09-30T05:34:42;99130.16;;;6.92;60.48
26823;BME280;14852;51.910;8.878;2022-09-30T05:37:08;99138.81;;;6.91;60.69
26823;BME280;14852;51.910;8.878;2022-09-30T05:39:34;99140.50;;;6.92;60.46
26823;BME280;14852;51.910;8.878;2022-09-30T05:42:01;99145.56;;;6.94;60.86
26823;BME280;14852;51.910;8.878;2022-09-30T05:44:27;99148.00;;;6.97;60.43
26823;BME280;14852;51.910;8.878;2022-09-30T05:46:52;99141.09;;;6.97;60.26
26823;BME280;14852;51.910;8.878;2022-09-30T05:49:18;99135.94;;;6.97;60.37
26823;BME280;14852;51.910;8.878;2022-09-30T05:51:44;99140.13;;;7.00;60.30
26823;BME280;14852;51.910;8.878;2022-09-30T05:54:10;99150.22;;;7.04;60.35
26823;BME280;14852;51.910;8.878;2022-09-30T05:56:36;99142.25;;;7.09;60.35
26823;BME280;14852;51.910;8.878;2022-09-30T05:59:06;99149.97;;;7.27;60.08
26823;BME280;14852;51.910;8.878;2022-09-30T06:01:32;99157.00;;;8.10;58.91
26823;BME280;14852;51.910;8.878;2022-09-30T06:03:58;99161.41;;;9.35;55.99
26823;BME280;14852;51.910;8.878;2022-09-30T06:06:24;99156.13;;;10.53;53.03
26823;BME280;14852;51.910;8.878;2022-09-30T06:08:50;99157.16;;;11.58;51.14
26823;BME280;14852;51.910;8.878;2022-09-30T06:11:19;99156.38;;;12.47;49.66
26823;BME280;14852;51.910;8.878;2022-09-30T06:13:46;99149.88;;;13.14;48.54
26823;BME280;14852;51.910;8.878;2022-09-30T06:16:13;99146.81;;;13.55;47.41
26823;BME280;14852;51.910;8.878;2022-09-30T06:18:39;99154.28;;;13.95;47.06
26823;BME280;14852;51.910;8.878;2022-09-30T06:21:08;99148.88;;;14.42;46.42
26823;BME280;14852;51.910;8.878;2022-09-30T06:23:35;99150.84;;;14.95;45.59
26823;BME280;14852;51.910;8.878;2022-09-30T06:26:03;99151.78;;;15.37;44.82
26823;BME280;14852;51.910;8.878;2022-09-30T06:28:30;99149.56;;;15.64;44.67
26823;BME280;14852;51.910;8.878;2022-09-30T06:30:58;99151.78;;;16.10;44.07
26823;BME280;14852;51.910;8.878;2022-09-30T06:33:24;99149.06;;;16.52;43.41
26823;BME280;14852;51.910;8.878;2022-09-30T06:35:50;99153.50;;;17.01;42.95
26823;BME280;14852;51.910;8.878;2022-09-30T06:38:16;99159.47;;;17.32;42.76
26823;BME280;14852;51.910;8.878;2022-09-30T06:40:43;99161.00;;;17.54;42.08
26823;BME280;14852;51.910;8.878;2022-09-30T06:43:10;99159.25;;;17.73;42.31
26823;BME280;14852;51.910;8.878;2022-09-30T06:45:37;99170.09;;;18.07;41.30
26823;BME280;14852;51.910;8.878;2022-09-30T06:48:04;99172.22;;;18.41;41.33
26823;BME280;14852;51.910;8.878;2022-09-30T06:50:34;99158.19;;;18.60;40.96
26823;BME280;14852;51.910;8.878;2022-09-30T06:53:02;99160.19;;;19.21;40.18
26823;BME280;14852;51.910;8.878;2022-09-30T06:55:31;99163.28;;;19.51;39.96
26823;BME280;14852;51.910;8.878;2022-09-30T06:57:58;99160.38;;;19.98;39.64
26823;BME280;14852;51.910;8.878;2022-09-30T07:00:25;99166.44;;;20.16;39.02
26823;BME280;14852;51.910;8.878;2022-09-30T07:02:54;99163.00;;;19.98;39.24
26823;BME280;14852;51.910;8.878;2022-09-30T07:05:22;99161.34;;;20.23;39.23
26823;BME280;14852;51.910;8.878;2022-09-30T07:07:51;99153.63;;;20.55;38.62
26823;BME280;14852;51.910;8.878;2022-09-30T07:10:17;99158.28;;;20.53;39.04
26823;BME280;14852;51.910;8.878;2022-09-30T07:12:43;99154.31;;;20.57;39.09
26823;BME280;14852;51.910;8.878;2022-09-30T07:15:09;99153.88;;;20.78;38.95
26823;BME280;14852;51.910;8.878;2022-09-30T07:17:35;99158.09;;;21.05;38.66
26823;BME280;14852;51.910;8.878;2022-09-30T07:20:01;99162.00;;;21.43;38.34
26823;BME280;14852;51.910;8.878;2022-09-30T07:22:27;99163.81;;;22.08;37.37
26823;BME280;14852;51.910;8.878;2022-09-30T07:25:01;99167.06;;;22.42;37.08
26823;BME280;14852;51.910;8.878;2022-09-30T07:27:31;99161.19;;;22.63;37.27
26823;BME280;14852;51.910;8.878;2022-09-30T07:29:57;99161.66;;;22.83;37.27
26823;BME280;14852;51.910;8.878;2022-09-30T07:32:24;99163.53;;;23.05;37.00
26823;BME280;14852;51.910;8.878;2022-09-30T07:34:50;99158.13;;;23.44;36.64
26823;BME280;14852;51.910;8.878;2022-09-30T07:37:18;99163.41;;;23.90;36.21
26823;BME280;14852;51.910;8.878;2022-09-30T07:39:46;99165.25;;;24.27;35.80
26823;BME280;14852;51.910;8.878;2022-09-30T07:42:14;99165.25;;;24.56;35.93
26823;BME280;14852;51.910;8.878;2022-09-30T07:44:40;99165.47;;;25.05;35.47
26823;BME280;14852;51.910;8.878;2022-09-30T07:47:12;99166.47;;;25.61;35.09
26823;BME280;14852;51.910;8.878;2022-09-30T07:49:40;99167.81;;;25.93;34.03
26823;BME280;14852;51.910;8.878;2022-09-30T07:52:08;99167.22;;;26.26;33.77
26823;BME280;14852;51.910;8.878;2022-09-30T07:54:34;99162.06;;;26.52;33.66
26823;BME280;14852;51.910;8.878;2022-09-30T07:57:02;99156.50;;;26.88;33.63
26823;BME280;14852;51.910;8.878;2022-09-30T07:59:30;99149.25;;;27.30;33.17
26823;BME280;14852;51.910;8.878;2022-09-30T08:01:57;99161.03;;;27.68;33.32
26823;BME280;14852;51.910;8.878;2022-09-30T08:04:25;99163.22;;;28.51;32.63
26823;BME280;14852;51.910;8.878;2022-09-30T08:06:58;99156.59;;;29.17;31.39
26823;BME280;14852;51.910;8.878;2022-09-30T08:09:28;99160.59;;;29.40;30.85
26823;BME280;14852;51.910;8.878;2022-09-30T08:11:54;99162.66;;;29.69;30.74
26823;BME280;14852;51.910;8.878;2022-09-30T08:14:23;99162.16;;;30.29;30.36
26823;BME280;14852;51.910;8.878;2022-09-30T08:16:50;99160.59;;;30.39;29.44
26823;BME280;14852;51.910;8.878;2022-09-30T08:19:20;99157.78;;;30.52;29.48
26823;BME280;14852;51.910;8.878;2022-09-30T08:21:46;99159.72;;;30.45;28.97
26823;BME280;14852;51.910;8.878;2022-09-30T08:24:13;99159.56;;;30.22;29.35
26823;BME280;14852;51.910;8.878;2022-09-30T08:26:40;99172.97;;;30.40;29.16
26823;BME280;14852;51.910;8.878;2022-09-30T08:29:06;99177.09;;;30.18;29.17
26823;BME280;14852;51.910;8.878;2022-09-30T08:31:32;99174.84;;;29.97;28.48
26823;BME280;14852;51.910;8.878;2022-09-30T08:33:59;99176.13;;;29.87;28.90
26823;BME280;14852;51.910;8.878;2022-09-30T08:36:26;99173.34;;;30.01;28.72
26823;BME280;14852;51.910;8.878;2022-09-30T08:38:52;99174.09;;;29.83;28.86
26823;BME280;14852;51.910;8.878;2022-09-30T08:47:55;99175.16;;;30.07;29.01
26823;BME280;14852;51.910;8.878;2022-09-30T08:53:16;99182.84;;;29.40;28.36
26823;BME280;14852;51.910;8.878;2022-09-30T08:55:44;99173.16;;;29.33;28.08
26823;BME280;14852;51.910;8.878;2022-09-30T08:58:31;99182.94;;;29.14;28.92
26823;BME280;14852;51.910;8.878;2022-09-30T09:01:05;99180.75;;;29.04;28.31
26823;BME280;14852;51.910;8.878;2022-09-30T09:03:37;99192.94;;;28.94;28.38
26823;BME280;14852;51.910;8.878;2022-09-30T09:14:36;99184.59;;;28.57;29.06
26823;BME280;14852;51.910;8.878;2022-09-30T09:20:16;99193.25;;;27.73;30.13
26823;BME280;14852;51.910;8.878;2022-09-30T09:22:46;99193.53;;;27.18;30.90
26823;BME280;14852;51.910;8.878;2022-09-30T09:25:19;99201.00;;;26.25;31.89
26823;BME280;14852;51.910;8.878;2022-09-30T09:27:58;99187.41;;;25.65;33.62
26823;BME280;14852;51.910;8.878;2022-09-30T09:30:28;99195.31;;;25.22;34.86
26823;BME280;14852;51.910;8.878;2022-09-30T09:33:36;99199.84;;;24.92;35.28
26823;BME280;14852;51.910;8.878;2022-09-30T09:42:24;99191.03;;;24.18;37.27
26823;BME280;14852;51.910;8.878;2022-09-30T09:45:34;99194.47;;;24.04;37.69
26823;BME280;14852;51.910;8.878;2022-09-30T09:48:00;99196.25;;;23.89;36.64
26823;BME280;14852;51.910;8.878;2022-09-30T09:56:00;99192.00;;;23.65;37.66
26823;BME280;14852;51.910;8.878;2022-09-30T09:58:27;99192.84;;;23.80;37.63
26823;BME280;14852;51.910;8.878;2022-09-30T10:01:09;99194.06;;;23.92;37.13
26823;BME280;14852;51.910;8.878;2022-09-30T10:04:16;99195.06;;;23.91;37.29
26823;BME280;14852;51.910;8.878;2022-09-30T10:06:53;99190.75;;;23.90;37.14
26823;BME280;14852;51.910;8.878;2022-09-30T10:09:35;99193.31;;;23.83;37.28
26823;BME280;14852;51.910;8.878;2022-09-30T10:15:20;99189.63;;;23.16;38.13
26823;BME280;14852;51.910;8.878;2022-09-30T10:17:48;99187.50;;;23.34;38.62
26823;BME280;14852;51.910;8.878;2022-09-30T10:22:41;99188.25;;;23.20;37.12
26823;BME280;14852;51.910;8.878;2022-09-30T10:28:02;99201.38;;;22.83;37.66
26823;BME280;14852;51.910;8.878;2022-09-30T10:30:54;99201.38;;;22.83;37.70
26823;BME280;14852;51.910;8.878;2022-09-30T10:33:47;99192.06;;;22.87;37.28
26823;BME280;14852;51.910;8.878;2022-09-30T10:36:18;99189.53;;;23.01;36.62
26823;BME280;14852;51.910;8.878;2022-09-30T10:38:57;99194.16;;;22.99;36.52
26823;BME280;14852;51.910;8.878;2022-09-30T10:41:28;99187.88;;;23.00;36.33
26823;BME280;14852;51.910;8.878;2022-09-30T10:43:59;99196.44;;;23.10;36.31
26823;BME280;14852;51.910;8.878;2022-09-30T10:46:36;99192.63;;;23.13;36.15
26823;BME280;14852;51.910;8.878;2022-09-30T10:49:29;99200.75;;;23.11;36.04
26823;BME280;14852;51.910;8.878;2022-09-30T10:51:59;99200.84;;;22.95;36.18
26823;BME280;14852;51.910;8.878;2022-09-30T10:54:49;99200.91;;;23.10;36.35
26823;BME280;14852;51.910;8.878;2022-09-30T10:57:24;99198.75;;;23.14;35.55
26823;BME280;14852;51.910;8.878;2022-09-30T10:59:56;99205.91;;;23.05;35.93
26823;BME280;14852;51.910;8.878;2022-09-30T11:05:22;99207.63;;;23.21;35.67
26823;BME280;14852;51.910;8.878;2022-09-30T11:08:36;99210.13;;;23.22;36.25
26823;BME280;14852;51.910;8.878;2022-09-30T11:11:18;99206.69;;;23.14;35.50
26823;BME280;14852;51.910;8.878;2022-09-30T11:14:16;99205.59;;;23.00;35.22
26823;BME280;14852;51.910;8.878;2022-09-30T11:25:46;99203.53;;;23.18;35.17
26823;BME280;14852;51.910;8.878;2022-09-30T11:33:54;99191.91;;;23.19;34.51
26823;BME280;14852;51.910;8.878;2022-09-30T11:36:53;99187.44;;;23.20;35.24
26823;BME280;14852;51.910;8.878;2022-09-30T11:42:42;99190.09;;;22.89;35.57
26823;BME280;14852;51.910;8.878;2022-09-30T11:45:32;99188.13;;;22.83;35.27
26823;BME280;14852;51.910;8.878;2022-09-30T11:52:17;99178.53;;;22.82;34.70
26823;BME280;14852;51.910;8.878;2022-09-30T11:55:00;99181.16;;;22.73;34.88
26823;BME280;14852;51.910;8.878;2022-09-30T11:57:46;99191.63;;;22.67;34.59
26823;BME280;14852;51.910;8.878;2022-09-30T12:00:17;99183.28;;;22.39;34.03
26823;BME280;14852;51.910;8.878;2022-09-30T12:02:50;99193.06;;;22.30;33.80
26823;BME280;14852;51.910;8.878;2022-09-30T12:05:26;99184.97;;;22.24;33.88
26823;BME280;14852;51.910;8.878;2022-09-30T12:08:11;99190.94;;;22.18;34.13
26823;BME280;14852;51.910;8.878;2022-09-30T12:10:48;99183.66;;;21.95;34.38
26823;BME280;14852;51.910;8.878;2022-09-30T12:13:37;99184.81;;;21.85;34.57
26823;BME280;14852;51.910;8.878;2022-09-30T12:16:10;99193.06;;;21.82;34.62
26823;BME280;14852;51.910;8.878;2022-09-30T12:18:45;99189.59;;;21.81;34.48
26823;BME280;14852;51.910;8.878;2022-09-30T12:21:44;99183.84;;;21.78;34.43
26823;BME280;14852;51.910;8.878;2022-09-30T12:24:43;99189.44;;;21.75;34.95
26823;BME280;14852;51.910;8.878;2022-09-30T12:27:29;99190.13;;;21.68;34.42
26823;BME280;14852;51.910;8.878;2022-09-30T12:30:13;99181.84;;;21.55;34.86
26823;BME280;14852;51.910;8.878;2022-09-30T12:36:01;99182.81;;;21.62;35.13
26823;BME280;14852;51.910;8.878;2022-09-30T12:39:06;99184.31;;;21.65;34.85
26823;BME280;14852;51.910;8.878;2022-09-30T12:41:47;99184.84;;;21.68;35.27
26823;BME280;14852;51.910;8.878;2022-09-30T12:45:08;99189.78;;;21.63;35.17
26823;BME280;14852;51.910;8.878;2022-09-30T12:47:45;99186.31;;;21.55;35.18
26823;BME280;14852;51.910;8.878;2022-09-30T12:50:20;99177.88;;;21.51;35.19
26823;BME280;14852;51.910;8.878;2022-09-30T12:52:47;99180.16;;;21.46;34.82
26823;BME280;14852;51.910;8.878;2022-09-30T12:55:27;99174.56;;;21.41;34.76
26823;BME280;14852;51.910;8.878;2022-09-30T12:57:54;99173.88;;;21.31;34.81
26823;BME280;14852;51.910;8.878;2022-09-30T13:00:25;99172.66;;;21.17;34.93
26823;BME280;14852;51.910;8.878;2022-09-30T13:02:58;99165.22;;;21.13;35.36
26823;BME280;14852;51.910;8.878;2022-09-30T13:10:44;99162.88;;;21.02;35.02
26823;BME280;14852;51.910;8.878;2022-09-30T13:13:30;99156.13;;;21.07;34.94
26823;BME280;14852;51.910;8.878;2022-09-30T13:15:59;99160.75;;;21.13;34.87
26823;BME280;14852;51.910;8.878;2022-09-30T13:24:07;99157.63;;;21.10;34.92
26823;BME280;14852;51.910;8.878;2022-09-30T13:26:36;99155.47;;;21.05;35.08
26823;BME280;14852;51.910;8.878;2022-09-30T13:34:23;99146.44;;;21.24;34.89
26823;BME280;14852;51.910;8.878;2022-09-30T13:47:38;99147.78;;;20.78;35.42
26823;BME280;14852;51.910;8.878;2022-09-30T13:50:28;99142.00;;;20.74;35.02
26823;BME280;14852;51.910;8.878;2022-09-30T13:53:00;99138.69;;;20.64;35.35
26823;BME280;14852;51.910;8.878;2022-09-30T13:55:42;99133.50;;;20.54;35.08
26823;BME280;14852;51.910;8.878;2022-09-30T14:10:25;99141.38;;;20.20;36.23
26823;BME280;14852;51.910;8.878;2022-09-30T14:13:30;99133.28;;;20.14;36.33
26823;BME280;14852;51.910;8.878;2022-09-30T14:16:34;99136.53;;;20.08;35.96
26823;BME280;14852;51.910;8.878;2022-09-30T14:19:32;99135.81;;;19.98;36.46
26823;BME280;14852;51.910;8.878;2022-09-30T14:22:06;99139.69;;;19.85;36.40
26823;BME280;14852;51.910;8.878;2022-09-30T14:24:35;99130.88;;;19.77;36.23
26823;BME280;14852;51.910;8.878;2022-09-30T14:30:08;99125.28;;;19.54;36.48
26823;BME280;14852;51.910;8.878;2022-09-30T14:32:57;99111.56;;;19.50;36.20
26823;BME280;14852;51.910;8.878;2022-09-30T14:35:36;99116.06;;;19.40;36.22
26823;BME280;14852;51.910;8.878;2022-09-30T14:38:22;99124.44;;;19.36;35.96
26823;BME280;14852;51.910;8.878;2022-09-30T14:40:57;99122.94;;;19.33;36.02
26823;BME280;14852;51.910;8.878;2022-09-30T14:43:29;99120.16;;;19.35;36.47
26823;BME280;14852;51.910;8.878;2022-09-30T14:46:36;99117.38;;;19.36;35.76
26823;BME280;14852;51.910;8.878;2022-09-30T14:49:18;99113.91;;;19.36;35.77
26823;BME280;14852;51.910;8.878;2022-09-30T14:51:48;99110.75;;;19.32;35.71
26823;BME280;14852;51.910;8.878;2022-09-30T14:54:23;99106.31;;;19.33;35.71
26823;BME280;14852;51.910;8.878;2022-09-30T14:56:51;99102.44;;;19.27;35.69
26823;BME280;14852;51.910;8.878;2022-09-30T14:59:29;99109.38;;;19.28;35.95
26823;BME280;14852;51.910;8.878;2022-09-30T15:02:03;99100.81;;;19.26;36.18
26823;BME280;14852;51.910;8.878;2022-09-30T15:04:40;99103.91;;;19.22;36.46
26823;BME280;14852;51.910;8.878;2022-09-30T15:07:10;99109.47;;;19.18;36.27
26823;BME280;14852;51.910;8.878;2022-09-30T15:09:41;99107.13;;;19.15;36.45
26823;BME280;14852;51.910;8.878;2022-09-30T15:12:21;99097.75;;;19.13;36.19
26823;BME280;14852;51.910;8.878;2022-09-30T15:14:58;99098.84;;;19.10;36.51
26823;BME280;14852;51.910;8.878;2022-09-30T15:17:33;99097.34;;;19.08;36.44
26823;BME280;14852;51.910;8.878;2022-09-30T15:20:02;99094.19;;;19.04;36.48
26823;BME280;14852;51.910;8.878;2022-09-30T15:22:42;99102.41;;;19.01;36.62
26823;BME280;14852;51.910;8.878;2022-09-30T15:25:10;99099.63;;;19.03;37.12
26823;BME280;14852;51.910;8.878;2022-09-30T15:27:37;99093.13;;;18.97;36.96
26823;BME280;14852;51.910;8.878;2022-09-30T15:32:41;99090.28;;;18.91;37.08
26823;BME280;14852;51.910;8.878;2022-09-30T15:35:26;99084.34;;;18.89;36.86
26823;BME280;14852;51.910;8.878;2022-09-30T15:37:53;99086.06;;;18.80;37.21
26823;BME280;14852;51.910;8.878;2022-09-30T15:40:22;99092.31;;;18.79;37.17
26823;BME280;14852;51.910;8.878;2022-09-30T15:43:09;99084.97;;;18.73;36.87
26823;BME280;14852;51.910;8.878;2022-09-30T15:45:42;99090.72;;;18.68;37.48
26823;BME280;14852;51.910;8.878;2022-09-30T15:50:47;99096.41;;;18.64;37.37
26823;BME280;14852;51.910;8.878;2022-09-30T15:55:53;99093.66;;;18.56;37.49
26823;BME280;14852;51.910;8.878;2022-09-30T15:58:38;99098.91;;;18.56;37.54
26823;BME280;14852;51.910;8.878;2022-09-30T16:04:03;99097.44;;;18.43;37.73
26823;BME280;14852;51.910;8.878;2022-09-30T16:06:33;99100.66;;;18.37;37.67
26823;BME280;14852;51.910;8.878;2022-09-30T16:09:17;99095.97;;;18.31;38.13
26823;BME280;14852;51.910;8.878;2022-09-30T16:11:58;99105.13;;;18.27;37.83
26823;BME280;14852;51.910;8.878;2022-09-30T16:14:30;99102.41;;;18.19;38.28
26823;BME280;14852;51.910;8.878;2022-09-30T16:17:02;99100.06;;;18.16;37.89
26823;BME280;14852;51.910;8.878;2022-09-30T16:19:30;99106.72;;;18.11;38.33
26823;BME280;14852;51.910;8.878;2022-09-30T16:21:56;99110.59;;;18.06;38.30
26823;BME280;14852;51.910;8.878;2022-09-30T16:26:56;99106.63;;;17.93;39.34
26823;BME280;14852;51.910;8.878;2022-09-30T16:29:25;99109.16;;;17.85;39.41
26823;BME280;14852;51.910;8.878;2022-09-30T16:31:55;99108.22;;;17.76;39.65
26823;BME280;14852;51.910;8.878;2022-09-30T16:34:27;99110.81;;;17.66;39.72
26823;BME280;14852;51.910;8.878;2022-09-30T16:37:02;99111.91;;;17.54;40.21